sensor_id;sensor_type;location;lat;lon;timestamp;temperature;humidity
4828;DHT22;2428;48.732;9.148;2023-06-14T00:01:41;15.90;87.00
4828;DHT22;2428;48.732;9.148;2023-06-14T00:04:06;15.90;86.50
4828;DHT22;2428;48.732;9.148;2023-06-14T00:06:34;15.90;87.00
4828;DHT22;2428;48.732;9.148;2023-06-14T00:08:59;15.90;88.90
4828;DHT22;2428;48.732;9.148;2023-06-14T00:11:25;15.80;85.60
4828;DHT22;2428;48.732;9.148;2023-06-14T00:13:52;15.70;87.20
4828;DHT22;2428;48.732;9.148;2023-06-14T00:16:18;15.80;88.80
4828;DHT22;2428;48.732;9.148;2023-06-14T00:18:45;15.70;87.60
4828;DHT22;2428;48.732;9.148;2023-06-14T00:21:11;15.70;87.30
4828;DHT22;2428;48.732;9.148;2023-06-14T00:23:37;15.60;88.50
4828;DHT22;2428;48.732;9.148;2023-06-14T00:26:03;15.60;90.00
4828;DHT22;2428;48.732;9.148;2023-06-14T00:28:29;15.60;88.30
4828;DHT22;2428;48.732;9.148;2023-06-14T00:30:54;15.60;89.70
4828;DHT22;2428;48.732;9.148;2023-06-14T00:33:20;15.60;90.30
4828;DHT22;2428;48.732;9.148;2023-06-14T00:35:46;15.60;90.70
4828;DHT22;2428;48.732;9.148;2023-06-14T00:38:12;15.60;90.40
4828;DHT22;2428;48.732;9.148;2023-06-14T00:40:38;15.50;90.60
4828;DHT22;2428;48.732;9.148;2023-06-14T00:43:03;15.50;90.80
4828;DHT22;2428;48.732;9.148;2023-06-14T00:45:29;15.50;91.50
4828;DHT22;2428;48.732;9.148;2023-06-14T00:47:56;15.50;91.00
4828;DHT22;2428;48.732;9.148;2023-06-14T00:50:23;15.40;91.20
4828;DHT22;2428;48.732;9.148;2023-06-14T00:52:49;15.30;91.20
4828;DHT22;2428;48.732;9.148;2023-06-14T00:55:15;15.20;91.90
4828;DHT22;2428;48.732;9.148;2023-06-14T00:57:41;15.20;92.00
4828;DHT22;2428;48.732;9.148;2023-06-14T01:00:07;15.20;92.60
4828;DHT22;2428;48.732;9.148;2023-06-14T01:02:38;15.20;92.80
4828;DHT22;2428;48.732;9.148;2023-06-14T01:05:05;15.00;93.00
4828;DHT22;2428;48.732;9.148;2023-06-14T01:15:43;14.90;94.50
4828;DHT22;2428;48.732;9.148;2023-06-14T01:18:09;14.80;95.30
4828;DHT22;2428;48.732;9.148;2023-06-14T01:20:43;14.80;95.00
4828;DHT22;2428;48.732;9.148;2023-06-14T01:23:10;14.80;95.90
4828;DHT22;2428;48.732;9.148;2023-06-14T01:25:37;14.80;96.10
4828;DHT22;2428;48.732;9.148;2023-06-14T01:28:05;14.80;96.20
4828;DHT22;2428;48.732;9.148;2023-06-14T01:30:40;14.80;96.90
4828;DHT22;2428;48.732;9.148;2023-06-14T01:33:12;14.80;96.10
4828;DHT22;2428;48.732;9.148;2023-06-14T01:35:39;14.70;96.30
4828;DHT22;2428;48.732;9.148;2023-06-14T01:38:06;14.70;96.60
4828;DHT22;2428;48.732;9.148;2023-06-14T01:40:34;14.70;97.10
4828;DHT22;2428;48.732;9.148;2023-06-14T01:43:00;14.60;96.70
4828;DHT22;2428;48.732;9.148;2023-06-14T01:45:27;14.60;97.00
4828;DHT22;2428;48.732;9.148;2023-06-14T01:47:55;14.60;97.40
4828;DHT22;2428;48.732;9.148;2023-06-14T01:50:21;14.50;97.50
4828;DHT22;2428;48.732;9.148;2023-06-14T01:52:46;14.50;98.40
4828;DHT22;2428;48.732;9.148;2023-06-14T01:55:12;14.50;99.10
4828;DHT22;2428;48.732;9.148;2023-06-14T01:57:38;14.50;99.00
4828;DHT22;2428;48.732;9.148;2023-06-14T02:00:05;14.50;99.20
4828;DHT22;2428;48.732;9.148;2023-06-14T02:02:33;14.40;98.20
4828;DHT22;2428;48.732;9.148;2023-06-14T02:04:59;14.40;98.80
4828;DHT22;2428;48.732;9.148;2023-06-14T02:07:24;14.40;99.90
4828;DHT22;2428;48.732;9.148;2023-06-14T02:09:50;14.40;99.20
4828;DHT22;2428;48.732;9.148;2023-06-14T02:12:16;14.40;99.60
4828;DHT22;2428;48.732;9.148;2023-06-14T02:14:41;14.40;99.30
4828;DHT22;2428;48.732;9.148;2023-06-14T02:17:07;14.30;99.60
4828;DHT22;2428;48.732;9.148;2023-06-14T02:19:33;14.20;99.70
4828;DHT22;2428;48.732;9.148;2023-06-14T02:21:58;14.20;99.90
4828;DHT22;2428;48.732;9.148;2023-06-14T02:24:24;14.10;99.90
4828;DHT22;2428;48.732;9.148;2023-06-14T02:26:50;14.10;99.80
4828;DHT22;2428;48.732;9.148;2023-06-14T02:29:15;14.10;99.80
4828;DHT22;2428;48.732;9.148;2023-06-14T02:31:41;14.10;99.90
4828;DHT22;2428;48.732;9.148;2023-06-14T02:34:07;14.20;99.90
4828;DHT22;2428;48.732;9.148;2023-06-14T02:36:34;14.10;99.90
4828;DHT22;2428;48.732;9.148;2023-06-14T02:39:00;14.10;99.90
4828;DHT22;2428;48.732;9.148;2023-06-14T02:41:26;14.00;99.90
4828;DHT22;2428;48.732;9.148;2023-06-14T02:43:52;14.00;99.90
4828;DHT22;2428;48.732;9.148;2023-06-14T02:46:18;13.90;99.90
4828;DHT22;2428;48.732;9.148;2023-06-14T02:48:43;13.90;99.90
4828;DHT22;2428;48.732;9.148;2023-06-14T02:51:09;13.90;99.90
4828;DHT22;2428;48.732;9.148;2023-06-14T02:53:35;13.90;99.90
4828;DHT22;2428;48.732;9.148;2023-06-14T02:56:02;13.80;99.90
4828;DHT22;2428;48.732;9.148;2023-06-14T02:58:29;13.90;99.90
4828;DHT22;2428;48.732;9.148;2023-06-14T03:00:55;13.90;99.90
4828;DHT22;2428;48.732;9.148;2023-06-14T03:03:20;13.90;99.90
4828;DHT22;2428;48.732;9.148;2023-06-14T03:05:49;13.80;99.90
4828;DHT22;2428;48.732;9.148;2023-06-14T03:08:18;13.70;99.90
4828;DHT22;2428;48.732;9.148;2023-06-14T03:10:47;13.70;99.90
4828;DHT22;2428;48.732;9.148;2023-06-14T03:13:17;13.70;99.90
4828;DHT22;2428;48.732;9.148;2023-06-14T03:15:46;13.70;99.90
4828;DHT22;2428;48.732;9.148;2023-06-14T03:18:12;13.70;99.90
4828;DHT22;2428;48.732;9.148;2023-06-14T03:20:40;13.80;99.90
4828;DHT22;2428;48.732;9.148;2023-06-14T03:23:06;13.80;99.90
4828;DHT22;2428;48.732;9.148;2023-06-14T03:25:32;13.70;99.90
4828;DHT22;2428;48.732;9.148;2023-06-14T03:28:04;13.60;99.90
4828;DHT22;2428;48.732;9.148;2023-06-14T03:30:30;13.60;99.90
4828;DHT22;2428;48.732;9.148;2023-06-14T03:32:57;13.50;99.90
4828;DHT22;2428;48.732;9.148;2023-06-14T03:35:23;13.60;99.90
4828;DHT22;2428;48.732;9.148;2023-06-14T03:37:49;13.60;99.90
4828;DHT22;2428;48.732;9.148;2023-06-14T03:40:17;13.60;99.90
4828;DHT22;2428;48.732;9.148;2023-06-14T03:42:42;13.60;99.90
4828;DHT22;2428;48.732;9.148;2023-06-14T03:45:08;13.50;99.90
4828;DHT22;2428;48.732;9.148;2023-06-14T03:47:34;13.50;99.90
4828;DHT22;2428;48.732;9.148;2023-06-14T03:50:00;13.50;99.90
4828;DHT22;2428;48.732;9.148;2023-06-14T03:52:27;13.60;99.90
4828;DHT22;2428;48.732;9.148;2023-06-14T03:54:52;13.60;99.90
4828;DHT22;2428;48.732;9.148;2023-06-14T03:57:18;13.60;99.90
4828;DHT22;2428;48.732;9.148;2023-06-14T03:59:44;13.60;99.90
4828;DHT22;2428;48.732;9.148;2023-06-14T04:02:09;13.50;99.90
4828;DHT22;2428;48.732;9.148;2023-06-14T04:04:35;13.50;99.90
4828;DHT22;2428;48.732;9.148;2023-06-14T04:07:01;13.50;99.90
4828;DHT22;2428;48.732;9.148;2023-06-14T04:09:29;13.60;99.90
4828;DHT22;2428;48.732;9.148;2023-06-14T04:11:55;13.60;99.90
4828;DHT22;2428;48.732;9.148;2023-06-14T04:14:21;13.60;99.90
4828;DHT22;2428;48.732;9.148;2023-06-14T04:16:48;13.70;99.90
4828;DHT22;2428;48.732;9.148;2023-06-14T04:19:14;13.70;99.90
4828;DHT22;2428;48.732;9.148;2023-06-14T04:21:40;13.70;99.90
4828;DHT22;2428;48.732;9.148;2023-06-14T04:24:06;13.70;99.90
4828;DHT22;2428;48.732;9.148;2023-06-14T04:26:32;13.80;99.90
4828;DHT22;2428;48.732;9.148;2023-06-14T04:28:59;13.90;99.90
4828;DHT22;2428;48.732;9.148;2023-06-14T04:31:31;14.00;99.90
4828;DHT22;2428;48.732;9.148;2023-06-14T04:34:03;14.10;99.90
4828;DHT22;2428;48.732;9.148;2023-06-14T04:36:32;14.20;99.90
4828;DHT22;2428;48.732;9.148;2023-06-14T04:39:00;14.30;99.90
4828;DHT22;2428;48.732;9.148;2023-06-14T04:41:26;14.30;99.90
4828;DHT22;2428;48.732;9.148;2023-06-14T04:43:57;14.30;99.90
4828;DHT22;2428;48.732;9.148;2023-06-14T04:46:24;14.40;99.90
4828;DHT22;2428;48.732;9.148;2023-06-14T04:48:49;14.40;99.90
4828;DHT22;2428;48.732;9.148;2023-06-14T04:51:16;14.50;99.90
4828;DHT22;2428;48.732;9.148;2023-06-14T04:53:42;14.50;99.90
4828;DHT22;2428;48.732;9.148;2023-06-14T04:56:09;14.60;99.90
4828;DHT22;2428;48.732;9.148;2023-06-14T04:58:35;14.60;99.90
4828;DHT22;2428;48.732;9.148;2023-06-14T05:01:01;14.70;99.90
4828;DHT22;2428;48.732;9.148;2023-06-14T05:03:27;14.70;99.90
4828;DHT22;2428;48.732;9.148;2023-06-14T05:05:53;14.80;99.90
4828;DHT22;2428;48.732;9.148;2023-06-14T05:08:21;14.80;99.90
4828;DHT22;2428;48.732;9.148;2023-06-14T05:10:49;14.90;99.90
4828;DHT22;2428;48.732;9.148;2023-06-14T05:13:15;15.00;99.90
4828;DHT22;2428;48.732;9.148;2023-06-14T05:15:40;15.10;99.90
4828;DHT22;2428;48.732;9.148;2023-06-14T05:18:06;15.30;99.90
4828;DHT22;2428;48.732;9.148;2023-06-14T05:20:34;15.30;99.90
4828;DHT22;2428;48.732;9.148;2023-06-14T05:23:02;15.40;99.90
4828;DHT22;2428;48.732;9.148;2023-06-14T05:25:28;15.50;99.90
4828;DHT22;2428;48.732;9.148;2023-06-14T05:27:53;15.60;99.90
4828;DHT22;2428;48.732;9.148;2023-06-14T05:30:19;15.60;99.90
4828;DHT22;2428;48.732;9.148;2023-06-14T05:32:45;15.70;99.90
4828;DHT22;2428;48.732;9.148;2023-06-14T05:35:10;15.70;99.90
4828;DHT22;2428;48.732;9.148;2023-06-14T05:37:36;15.80;99.90
4828;DHT22;2428;48.732;9.148;2023-06-14T05:40:03;15.80;99.90
4828;DHT22;2428;48.732;9.148;2023-06-14T05:42:31;15.90;99.90
4828;DHT22;2428;48.732;9.148;2023-06-14T05:44:57;15.90;99.90
4828;DHT22;2428;48.732;9.148;2023-06-14T05:47:22;15.90;99.90
4828;DHT22;2428;48.732;9.148;2023-06-14T05:49:48;15.90;99.90
4828;DHT22;2428;48.732;9.148;2023-06-14T05:52:13;16.00;99.90
4828;DHT22;2428;48.732;9.148;2023-06-14T05:54:39;15.90;99.90
4828;DHT22;2428;48.732;9.148;2023-06-14T05:57:05;15.90;99.90
4828;DHT22;2428;48.732;9.148;2023-06-14T05:59:31;15.80;99.90
4828;DHT22;2428;48.732;9.148;2023-06-14T06:01:57;15.90;99.90
4828;DHT22;2428;48.732;9.148;2023-06-14T06:04:23;15.90;99.90
4828;DHT22;2428;48.732;9.148;2023-06-14T06:06:48;16.00;99.90
4828;DHT22;2428;48.732;9.148;2023-06-14T06:09:14;16.10;99.90
4828;DHT22;2428;48.732;9.148;2023-06-14T06:11:40;16.10;99.90
4828;DHT22;2428;48.732;9.148;2023-06-14T06:14:06;16.10;99.90
4828;DHT22;2428;48.732;9.148;2023-06-14T06:16:32;16.10;99.90
4828;DHT22;2428;48.732;9.148;2023-06-14T06:18:58;16.20;99.90
4828;DHT22;2428;48.732;9.148;2023-06-14T06:21:23;16.20;99.90
4828;DHT22;2428;48.732;9.148;2023-06-14T06:23:49;16.20;99.90
4828;DHT22;2428;48.732;9.148;2023-06-14T06:26:14;16.40;99.90
4828;DHT22;2428;48.732;9.148;2023-06-14T06:28:40;16.50;99.90
4828;DHT22;2428;48.732;9.148;2023-06-14T06:31:06;16.60;99.90
4828;DHT22;2428;48.732;9.148;2023-06-14T06:33:31;16.60;99.90
4828;DHT22;2428;48.732;9.148;2023-06-14T06:35:57;16.60;99.90
4828;DHT22;2428;48.732;9.148;2023-06-14T06:38:23;16.70;99.90
4828;DHT22;2428;48.732;9.148;2023-06-14T06:40:48;16.80;99.90
4828;DHT22;2428;48.732;9.148;2023-06-14T06:43:16;16.90;99.90
4828;DHT22;2428;48.732;9.148;2023-06-14T06:45:43;16.90;99.90
4828;DHT22;2428;48.732;9.148;2023-06-14T06:48:08;17.00;99.90
4828;DHT22;2428;48.732;9.148;2023-06-14T06:50:37;17.10;99.70
4828;DHT22;2428;48.732;9.148;2023-06-14T06:53:03;17.10;99.90
4828;DHT22;2428;48.732;9.148;2023-06-14T06:55:30;17.10;99.70
4828;DHT22;2428;48.732;9.148;2023-06-14T06:57:55;17.20;99.90
4828;DHT22;2428;48.732;9.148;2023-06-14T07:00:21;17.30;99.90
4828;DHT22;2428;48.732;9.148;2023-06-14T07:02:47;17.30;98.80
4828;DHT22;2428;48.732;9.148;2023-06-14T07:05:13;17.30;98.60
4828;DHT22;2428;48.732;9.148;2023-06-14T07:07:38;17.40;99.80
4828;DHT22;2428;48.732;9.148;2023-06-14T07:10:04;17.40;99.50
4828;DHT22;2428;48.732;9.148;2023-06-14T07:12:33;17.50;99.90
4828;DHT22;2428;48.732;9.148;2023-06-14T07:15:01;17.50;99.90
4828;DHT22;2428;48.732;9.148;2023-06-14T07:17:27;17.50;99.70
4828;DHT22;2428;48.732;9.148;2023-06-14T07:19:52;17.60;99.90
4828;DHT22;2428;48.732;9.148;2023-06-14T07:22:19;17.60;99.90
4828;DHT22;2428;48.732;9.148;2023-06-14T07:24:45;17.60;99.90
4828;DHT22;2428;48.732;9.148;2023-06-14T07:27:10;17.70;99.70
4828;DHT22;2428;48.732;9.148;2023-06-14T07:29:38;17.90;99.90
4828;DHT22;2428;48.732;9.148;2023-06-14T07:32:05;17.80;99.70
4828;DHT22;2428;48.732;9.148;2023-06-14T07:34:31;17.90;97.80
4828;DHT22;2428;48.732;9.148;2023-06-14T07:36:57;17.90;98.50
4828;DHT22;2428;48.732;9.148;2023-06-14T07:39:22;17.90;98.60
4828;DHT22;2428;48.732;9.148;2023-06-14T07:41:48;17.90;99.70
4828;DHT22;2428;48.732;9.148;2023-06-14T07:44:14;18.00;98.60
4828;DHT22;2428;48.732;9.148;2023-06-14T07:46:39;18.10;98.20
4828;DHT22;2428;48.732;9.148;2023-06-14T07:49:05;18.10;98.20
4828;DHT22;2428;48.732;9.148;2023-06-14T07:51:31;18.20;98.30
4828;DHT22;2428;48.732;9.148;2023-06-14T07:53:59;18.30;98.30
4828;DHT22;2428;48.732;9.148;2023-06-14T07:56:26;18.30;98.90
4828;DHT22;2428;48.732;9.148;2023-06-14T07:58:52;18.40;97.70
4828;DHT22;2428;48.732;9.148;2023-06-14T08:01:17;18.40;98.40
4828;DHT22;2428;48.732;9.148;2023-06-14T08:03:44;18.50;98.50
4828;DHT22;2428;48.732;9.148;2023-06-14T08:06:10;18.50;99.00
4828;DHT22;2428;48.732;9.148;2023-06-14T08:08:36;18.60;98.30
4828;DHT22;2428;48.732;9.148;2023-06-14T08:11:01;18.70;98.50
4828;DHT22;2428;48.732;9.148;2023-06-14T08:13:27;18.70;98.00
4828;DHT22;2428;48.732;9.148;2023-06-14T08:15:52;18.70;97.00
4828;DHT22;2428;48.732;9.148;2023-06-14T08:18:18;18.80;97.50
4828;DHT22;2428;48.732;9.148;2023-06-14T08:20:43;18.70;96.80
4828;DHT22;2428;48.732;9.148;2023-06-14T08:23:09;18.80;96.50
4828;DHT22;2428;48.732;9.148;2023-06-14T08:25:35;18.70;98.10
4828;DHT22;2428;48.732;9.148;2023-06-14T08:28:01;18.80;96.90
4828;DHT22;2428;48.732;9.148;2023-06-14T08:30:26;18.80;96.80
4828;DHT22;2428;48.732;9.148;2023-06-14T08:32:52;18.80;96.80
4828;DHT22;2428;48.732;9.148;2023-06-14T08:35:21;18.90;97.10
4828;DHT22;2428;48.732;9.148;2023-06-14T08:37:46;19.00;97.40
4828;DHT22;2428;48.732;9.148;2023-06-14T08:40:21;19.00;97.50
4828;DHT22;2428;48.732;9.148;2023-06-14T08:42:52;19.10;97.30
4828;DHT22;2428;48.732;9.148;2023-06-14T08:45:19;19.20;97.90
4828;DHT22;2428;48.732;9.148;2023-06-14T08:47:45;19.20;97.90
4828;DHT22;2428;48.732;9.148;2023-06-14T08:50:21;19.20;97.30
4828;DHT22;2428;48.732;9.148;2023-06-14T08:52:48;19.30;98.50
4828;DHT22;2428;48.732;9.148;2023-06-14T08:55:18;19.40;98.90
4828;DHT22;2428;48.732;9.148;2023-06-14T08:57:46;19.50;98.00
4828;DHT22;2428;48.732;9.148;2023-06-14T09:00:13;19.50;97.60
4828;DHT22;2428;48.732;9.148;2023-06-14T09:02:39;19.60;98.90
4828;DHT22;2428;48.732;9.148;2023-06-14T09:05:11;19.60;97.80
4828;DHT22;2428;48.732;9.148;2023-06-14T09:07:43;19.70;99.60
4828;DHT22;2428;48.732;9.148;2023-06-14T09:10:14;19.80;98.00
4828;DHT22;2428;48.732;9.148;2023-06-14T09:12:40;19.80;98.00
4828;DHT22;2428;48.732;9.148;2023-06-14T09:15:06;19.80;98.10
4828;DHT22;2428;48.732;9.148;2023-06-14T09:17:36;19.80;98.40
4828;DHT22;2428;48.732;9.148;2023-06-14T09:20:04;19.90;98.10
4828;DHT22;2428;48.732;9.148;2023-06-14T09:22:39;20.00;97.30
4828;DHT22;2428;48.732;9.148;2023-06-14T09:25:05;20.00;96.00
4828;DHT22;2428;48.732;9.148;2023-06-14T09:27:31;20.10;97.20
4828;DHT22;2428;48.732;9.148;2023-06-14T09:29:57;20.10;96.80
4828;DHT22;2428;48.732;9.148;2023-06-14T09:32:23;20.30;98.00
4828;DHT22;2428;48.732;9.148;2023-06-14T09:34:49;20.40;96.80
4828;DHT22;2428;48.732;9.148;2023-06-14T09:37:30;20.40;95.70
4828;DHT22;2428;48.732;9.148;2023-06-14T09:39:56;20.50;96.00
4828;DHT22;2428;48.732;9.148;2023-06-14T09:42:22;20.70;97.10
4828;DHT22;2428;48.732;9.148;2023-06-14T09:44:52;20.80;95.10
4828;DHT22;2428;48.732;9.148;2023-06-14T09:47:19;21.00;94.60
4828;DHT22;2428;48.732;9.148;2023-06-14T09:49:44;21.30;94.90
4828;DHT22;2428;48.732;9.148;2023-06-14T09:52:13;21.40;92.00
4828;DHT22;2428;48.732;9.148;2023-06-14T09:54:42;21.50;93.30
4828;DHT22;2428;48.732;9.148;2023-06-14T09:57:13;21.40;92.40
4828;DHT22;2428;48.732;9.148;2023-06-14T09:59:42;21.60;92.00
4828;DHT22;2428;48.732;9.148;2023-06-14T10:02:14;21.80;90.30
4828;DHT22;2428;48.732;9.148;2023-06-14T10:04:47;22.10;93.70
4828;DHT22;2428;48.732;9.148;2023-06-14T10:07:19;22.50;92.30
4828;DHT22;2428;48.732;9.148;2023-06-14T10:09:45;23.00;93.40
4828;DHT22;2428;48.732;9.148;2023-06-14T10:12:16;23.50;90.90
4828;DHT22;2428;48.732;9.148;2023-06-14T10:14:47;24.10;86.90
4828;DHT22;2428;48.732;9.148;2023-06-14T10:17:20;24.60;86.90
4828;DHT22;2428;48.732;9.148;2023-06-14T10:20:18;24.90;83.50
4828;DHT22;2428;48.732;9.148;2023-06-14T10:22:53;25.10;79.90
4828;DHT22;2428;48.732;9.148;2023-06-14T10:25:27;25.20;79.60
4828;DHT22;2428;48.732;9.148;2023-06-14T10:28:16;26.20;82.50
4828;DHT22;2428;48.732;9.148;2023-06-14T10:31:10;26.80;79.60
4828;DHT22;2428;48.732;9.148;2023-06-14T10:33:39;28.20;74.00
4828;DHT22;2428;48.732;9.148;2023-06-14T10:36:26;29.20;71.60
4828;DHT22;2428;48.732;9.148;2023-06-14T10:39:07;30.10;70.50
4828;DHT22;2428;48.732;9.148;2023-06-14T10:41:38;30.40;65.50
4828;DHT22;2428;48.732;9.148;2023-06-14T10:46:39;31.60;59.80
4828;DHT22;2428;48.732;9.148;2023-06-14T10:49:05;30.10;62.20
4828;DHT22;2428;48.732;9.148;2023-06-14T10:51:52;28.60;63.20
4828;DHT22;2428;48.732;9.148;2023-06-14T10:54:20;27.30;68.00
4828;DHT22;2428;48.732;9.148;2023-06-14T10:56:47;26.80;67.20
4828;DHT22;2428;48.732;9.148;2023-06-14T10:59:14;27.20;69.80
4828;DHT22;2428;48.732;9.148;2023-06-14T11:02:12;27.90;68.20
4828;DHT22;2428;48.732;9.148;2023-06-14T11:07:38;29.70;65.80
4828;DHT22;2428;48.732;9.148;2023-06-14T11:12:48;30.50;59.40
4828;DHT22;2428;48.732;9.148;2023-06-14T11:15:14;31.10;59.80
4828;DHT22;2428;48.732;9.148;2023-06-14T11:17:50;32.20;55.80
4828;DHT22;2428;48.732;9.148;2023-06-14T11:20:17;33.00;57.30
4828;DHT22;2428;48.732;9.148;2023-06-14T11:22:43;34.00;55.00
4828;DHT22;2428;48.732;9.148;2023-06-14T11:25:09;34.40;53.60
4828;DHT22;2428;48.732;9.148;2023-06-14T11:27:35;34.90;52.90
4828;DHT22;2428;48.732;9.148;2023-06-14T11:30:01;35.20;51.00
4828;DHT22;2428;48.732;9.148;2023-06-14T11:32:27;35.10;52.00
4828;DHT22;2428;48.732;9.148;2023-06-14T11:34:53;34.80;50.80
4828;DHT22;2428;48.732;9.148;2023-06-14T11:37:19;34.30;52.00
4828;DHT22;2428;48.732;9.148;2023-06-14T11:39:45;34.00;49.30
4828;DHT22;2428;48.732;9.148;2023-06-14T11:42:15;33.80;50.40
4828;DHT22;2428;48.732;9.148;2023-06-14T11:44:41;34.40;51.30
4828;DHT22;2428;48.732;9.148;2023-06-14T11:47:06;34.70;50.40
4828;DHT22;2428;48.732;9.148;2023-06-14T11:49:36;34.40;49.00
4828;DHT22;2428;48.732;9.148;2023-06-14T11:52:02;34.40;48.60
4828;DHT22;2428;48.732;9.148;2023-06-14T11:54:27;34.50;49.30
4828;DHT22;2428;48.732;9.148;2023-06-14T11:56:53;33.20;49.10
4828;DHT22;2428;48.732;9.148;2023-06-14T11:59:20;32.30;50.20
4828;DHT22;2428;48.732;9.148;2023-06-14T12:01:47;32.60;50.20
4828;DHT22;2428;48.732;9.148;2023-06-14T12:04:13;32.50;50.70
4828;DHT22;2428;48.732;9.148;2023-06-14T12:06:38;32.70;50.40
4828;DHT22;2428;48.732;9.148;2023-06-14T12:09:07;32.50;49.30
4828;DHT22;2428;48.732;9.148;2023-06-14T12:11:38;31.60;49.90
4828;DHT22;2428;48.732;9.148;2023-06-14T12:14:08;30.50;51.90
4828;DHT22;2428;48.732;9.148;2023-06-14T12:16:37;30.00;52.60
4828;DHT22;2428;48.732;9.148;2023-06-14T12:19:13;30.40;52.10
4828;DHT22;2428;48.732;9.148;2023-06-14T12:21:39;30.70;51.70
4828;DHT22;2428;48.732;9.148;2023-06-14T12:24:08;30.60;52.10
4828;DHT22;2428;48.732;9.148;2023-06-14T12:26:41;30.40;54.20
4828;DHT22;2428;48.732;9.148;2023-06-14T12:29:07;30.30;54.30
4828;DHT22;2428;48.732;9.148;2023-06-14T12:31:33;30.00;52.90
4828;DHT22;2428;48.732;9.148;2023-06-14T12:33:59;30.20;52.50
4828;DHT22;2428;48.732;9.148;2023-06-14T12:36:26;29.90;52.70
4828;DHT22;2428;48.732;9.148;2023-06-14T12:38:54;30.10;53.20
4828;DHT22;2428;48.732;9.148;2023-06-14T12:41:21;30.10;52.80
4828;DHT22;2428;48.732;9.148;2023-06-14T12:43:47;30.10;53.40
4828;DHT22;2428;48.732;9.148;2023-06-14T12:46:13;29.30;51.90
4828;DHT22;2428;48.732;9.148;2023-06-14T12:48:38;28.40;53.00
4828;DHT22;2428;48.732;9.148;2023-06-14T12:51:04;26.90;53.50
4828;DHT22;2428;48.732;9.148;2023-06-14T12:53:30;26.20;53.60
4828;DHT22;2428;48.732;9.148;2023-06-14T12:55:56;25.80;55.90
4828;DHT22;2428;48.732;9.148;2023-06-14T12:58:21;25.90;58.30
4828;DHT22;2428;48.732;9.148;2023-06-14T13:00:49;26.10;58.80
4828;DHT22;2428;48.732;9.148;2023-06-14T13:03:14;25.90;59.70
4828;DHT22;2428;48.732;9.148;2023-06-14T13:05:40;25.60;58.90
4828;DHT22;2428;48.732;9.148;2023-06-14T13:08:07;25.40;58.80
4828;DHT22;2428;48.732;9.148;2023-06-14T13:10:34;25.30;59.10
4828;DHT22;2428;48.732;9.148;2023-06-14T13:13:00;25.40;62.30
4828;DHT22;2428;48.732;9.148;2023-06-14T13:15:27;25.40;60.40
4828;DHT22;2428;48.732;9.148;2023-06-14T13:17:53;25.40;60.20
4828;DHT22;2428;48.732;9.148;2023-06-14T13:20:19;25.40;60.10
4828;DHT22;2428;48.732;9.148;2023-06-14T13:22:44;25.50;57.60
4828;DHT22;2428;48.732;9.148;2023-06-14T13:25:10;25.90;61.20
4828;DHT22;2428;48.732;9.148;2023-06-14T13:27:35;26.10;58.70
4828;DHT22;2428;48.732;9.148;2023-06-14T13:30:02;26.20;58.50
4828;DHT22;2428;48.732;9.148;2023-06-14T13:32:27;26.40;60.90
4828;DHT22;2428;48.732;9.148;2023-06-14T13:34:53;26.60;58.20
4828;DHT22;2428;48.732;9.148;2023-06-14T13:37:19;26.30;58.50
4828;DHT22;2428;48.732;9.148;2023-06-14T13:39:44;26.20;57.60
4828;DHT22;2428;48.732;9.148;2023-06-14T13:42:10;26.00;59.00
4828;DHT22;2428;48.732;9.148;2023-06-14T13:44:36;25.70;59.20
4828;DHT22;2428;48.732;9.148;2023-06-14T13:47:01;25.40;57.90
4828;DHT22;2428;48.732;9.148;2023-06-14T13:49:27;25.10;58.40
4828;DHT22;2428;48.732;9.148;2023-06-14T13:51:53;24.80;57.80
4828;DHT22;2428;48.732;9.148;2023-06-14T13:54:21;24.90;61.00
4828;DHT22;2428;48.732;9.148;2023-06-14T13:56:47;25.10;60.80
4828;DHT22;2428;48.732;9.148;2023-06-14T13:59:12;25.40;62.40
4828;DHT22;2428;48.732;9.148;2023-06-14T14:01:38;25.50;60.80
4828;DHT22;2428;48.732;9.148;2023-06-14T14:04:04;25.70;59.90
4828;DHT22;2428;48.732;9.148;2023-06-14T14:06:30;25.80;58.90
4828;DHT22;2428;48.732;9.148;2023-06-14T14:08:56;26.10;58.80
4828;DHT22;2428;48.732;9.148;2023-06-14T14:11:21;26.50;62.20
4828;DHT22;2428;48.732;9.148;2023-06-14T14:13:47;26.70;62.60
4828;DHT22;2428;48.732;9.148;2023-06-14T14:16:13;26.90;59.50
4828;DHT22;2428;48.732;9.148;2023-06-14T14:18:39;27.10;58.40
4828;DHT22;2428;48.732;9.148;2023-06-14T14:21:04;27.20;59.60
4828;DHT22;2428;48.732;9.148;2023-06-14T14:23:30;27.30;60.20
4828;DHT22;2428;48.732;9.148;2023-06-14T14:25:56;27.60;58.40
4828;DHT22;2428;48.732;9.148;2023-06-14T14:28:22;27.60;57.30
4828;DHT22;2428;48.732;9.148;2023-06-14T14:30:48;27.60;56.30
4828;DHT22;2428;48.732;9.148;2023-06-14T14:33:14;27.40;58.60
4828;DHT22;2428;48.732;9.148;2023-06-14T14:35:45;27.10;57.50
4828;DHT22;2428;48.732;9.148;2023-06-14T14:38:14;27.30;57.60
4828;DHT22;2428;48.732;9.148;2023-06-14T14:40:42;27.30;57.30
4828;DHT22;2428;48.732;9.148;2023-06-14T14:43:07;27.10;56.90
4828;DHT22;2428;48.732;9.148;2023-06-14T14:45:33;27.00;58.60
4828;DHT22;2428;48.732;9.148;2023-06-14T14:48:00;26.80;57.50
4828;DHT22;2428;48.732;9.148;2023-06-14T14:50:26;26.40;58.30
4828;DHT22;2428;48.732;9.148;2023-06-14T14:52:51;26.10;59.40
4828;DHT22;2428;48.732;9.148;2023-06-14T14:55:17;25.80;60.60
4828;DHT22;2428;48.732;9.148;2023-06-14T14:57:43;25.50;62.60
4828;DHT22;2428;48.732;9.148;2023-06-14T15:00:09;25.20;62.30
4828;DHT22;2428;48.732;9.148;2023-06-14T15:02:35;25.00;65.00
4828;DHT22;2428;48.732;9.148;2023-06-14T15:05:00;24.80;62.30
4828;DHT22;2428;48.732;9.148;2023-06-14T15:07:28;24.80;62.60
4828;DHT22;2428;48.732;9.148;2023-06-14T15:09:54;25.00;62.00
4828;DHT22;2428;48.732;9.148;2023-06-14T15:12:20;25.00;63.80
4828;DHT22;2428;48.732;9.148;2023-06-14T15:14:51;25.10;63.50
4828;DHT22;2428;48.732;9.148;2023-06-14T15:17:20;25.10;62.60
4828;DHT22;2428;48.732;9.148;2023-06-14T15:19:47;24.90;62.70
4828;DHT22;2428;48.732;9.148;2023-06-14T15:22:14;24.70;63.30
4828;DHT22;2428;48.732;9.148;2023-06-14T15:24:42;24.70;62.80
4828;DHT22;2428;48.732;9.148;2023-06-14T15:27:08;24.90;63.10
4828;DHT22;2428;48.732;9.148;2023-06-14T15:29:34;25.20;64.10
4828;DHT22;2428;48.732;9.148;2023-06-14T15:32:01;25.40;61.10
4828;DHT22;2428;48.732;9.148;2023-06-14T15:34:27;25.60;60.70
4828;DHT22;2428;48.732;9.148;2023-06-14T15:36:52;25.70;59.80
4828;DHT22;2428;48.732;9.148;2023-06-14T15:39:18;25.70;60.30
4828;DHT22;2428;48.732;9.148;2023-06-14T15:41:43;25.70;60.30
4828;DHT22;2428;48.732;9.148;2023-06-14T15:44:09;25.50;60.20
4828;DHT22;2428;48.732;9.148;2023-06-14T15:46:35;25.40;61.70
4828;DHT22;2428;48.732;9.148;2023-06-14T15:49:00;25.30;61.70
4828;DHT22;2428;48.732;9.148;2023-06-14T15:51:27;25.40;63.90
4828;DHT22;2428;48.732;9.148;2023-06-14T15:53:53;25.40;62.30
4828;DHT22;2428;48.732;9.148;2023-06-14T15:56:19;25.20;60.80
4828;DHT22;2428;48.732;9.148;2023-06-14T15:58:44;25.10;60.50
4828;DHT22;2428;48.732;9.148;2023-06-14T16:01:10;25.10;62.20
4828;DHT22;2428;48.732;9.148;2023-06-14T16:03:36;25.00;62.00
4828;DHT22;2428;48.732;9.148;2023-06-14T16:06:01;25.10;62.80
4828;DHT22;2428;48.732;9.148;2023-06-14T16:08:27;25.00;62.80
4828;DHT22;2428;48.732;9.148;2023-06-14T16:10:52;25.00;63.40
4828;DHT22;2428;48.732;9.148;2023-06-14T16:13:18;24.90;63.00
4828;DHT22;2428;48.732;9.148;2023-06-14T16:15:43;24.70;62.00
4828;DHT22;2428;48.732;9.148;2023-06-14T16:18:09;24.40;62.70